createdAt,value
2023-05-01T00:00:42.013Z,14.44
2023-05-01T00:04:42.746Z,14.42
2023-05-01T00:08:41.902Z,14.40
2023-05-01T00:12:41.784Z,14.37
2023-05-01T00:16:41.962Z,14.36
2023-05-01T00:20:41.970Z,14.33
2023-05-01T00:24:41.855Z,14.30
2023-05-01T00:28:41.776Z,14.27
2023-05-01T00:32:41.921Z,14.26
2023-05-01T00:36:42.145Z,14.28
2023-05-01T00:40:42.841Z,14.26
2023-05-01T00:52:42.110Z,14.21
2023-05-01T00:56:42.289Z,14.19
2023-05-01T01:00:42.156Z,14.17
2023-05-01T01:04:44.448Z,14.15
2023-05-01T01:08:54.371Z,14.16
2023-05-01T01:12:50.073Z,14.13
2023-05-01T01:16:47.691Z,14.06
2023-05-01T01:20:45.680Z,14.01
2023-05-01T01:24:56.542Z,13.98
2023-05-01T01:28:59.862Z,13.95
2023-05-01T01:33:00.461Z,13.94
2023-05-01T01:36:48.432Z,13.91
2023-05-01T01:40:49.677Z,13.84
2023-05-01T01:44:48.168Z,13.76
2023-05-01T01:48:48.012Z,13.65
2023-05-01T01:52:46.565Z,13.58
2023-05-01T01:56:45.153Z,13.52
2023-05-01T02:00:44.477Z,13.41
2023-05-01T02:04:44.019Z,13.36
2023-05-01T02:08:44.736Z,13.28
2023-05-01T02:12:45.018Z,13.29
2023-05-01T02:16:43.782Z,13.28
2023-05-01T02:20:43.452Z,13.23
2023-05-01T02:24:43.754Z,13.20
2023-05-01T02:28:42.238Z,13.14
2023-05-01T02:32:42.230Z,13.11
2023-05-01T02:36:42.436Z,13.08
2023-05-01T02:40:48.362Z,13.09
2023-05-01T02:44:48.129Z,13.07
2023-05-01T02:48:42.562Z,13.09
2023-05-01T02:52:43.153Z,13.07
2023-05-01T02:56:42.342Z,13.04
2023-05-01T03:00:43.632Z,13.03
2023-05-01T03:04:42.826Z,13.01
2023-05-01T03:08:42.684Z,12.96
2023-05-01T03:12:43.226Z,12.95
2023-05-01T03:16:42.624Z,12.96
2023-05-01T03:20:50.427Z,12.91
2023-05-01T03:24:42.614Z,12.85
2023-05-01T03:28:42.283Z,12.83
2023-05-01T03:32:42.509Z,12.79
2023-05-01T03:36:42.312Z,12.76
2023-05-01T03:40:42.456Z,12.80
2023-05-01T03:44:42.435Z,12.85
2023-05-01T03:52:42.599Z,12.83
2023-05-01T03:56:42.335Z,12.84
2023-05-01T04:00:42.657Z,12.83
2023-05-01T04:04:42.466Z,12.80
2023-05-01T04:08:42.557Z,12.79
2023-05-01T04:12:42.427Z,12.80
2023-05-01T04:16:42.657Z,12.78
2023-05-01T04:20:42.418Z,12.75
2023-05-01T04:24:42.696Z,12.73
2023-05-01T04:28:42.736Z,12.66
2023-05-01T04:32:42.797Z,12.57
2023-05-01T04:36:42.449Z,12.56
2023-05-01T04:40:42.655Z,12.59
2023-05-01T04:44:42.614Z,12.60
2023-05-01T04:48:43.277Z,12.52
2023-05-01T04:52:42.563Z,12.46
2023-05-01T04:56:42.792Z,12.43
2023-05-01T05:00:42.532Z,12.38
2023-05-01T05:04:42.586Z,12.35
2023-05-01T05:08:42.686Z,12.29
2023-05-01T05:20:43.371Z,12.33
2023-05-01T05:24:43.420Z,12.34
2023-05-01T05:28:42.845Z,12.36
2023-05-01T05:32:43.392Z,12.38
2023-05-01T05:36:42.771Z,12.40
2023-05-01T05:40:42.615Z,12.41
2023-05-01T05:44:42.824Z,12.47
2023-05-01T05:52:43.107Z,12.43
2023-05-01T05:56:42.770Z,12.47
2023-05-01T06:00:43.780Z,12.50
2023-05-01T06:04:42.916Z,12.53
2023-05-01T06:12:45.266Z,12.55
2023-05-01T06:16:42.801Z,12.59
2023-05-01T06:20:43.150Z,12.58
2023-05-01T06:24:42.853Z,12.59
2023-05-01T06:28:42.854Z,12.58
2023-05-01T06:32:43.276Z,12.60
2023-05-01T06:36:42.847Z,12.65
2023-05-01T06:40:45.943Z,12.69
2023-05-01T06:48:43.006Z,12.68
2023-05-01T06:56:43.163Z,12.67
2023-05-01T07:00:42.879Z,12.70
2023-05-01T07:04:44.265Z,12.73
2023-05-01T07:08:42.871Z,12.76
2023-05-01T07:12:42.996Z,12.77
2023-05-01T07:16:42.929Z,12.79
2023-05-01T07:24:43.296Z,12.85
2023-05-01T07:28:43.060Z,12.91
2023-05-01T07:32:43.277Z,12.96
2023-05-01T07:36:43.151Z,12.98
2023-05-01T07:40:43.324Z,12.96
2023-05-01T07:44:42.991Z,12.92
2023-05-01T07:52:43.616Z,12.91
2023-05-01T08:00:44.351Z,13.02
2023-05-01T08:04:45.044Z,13.11
2023-05-01T08:08:43.547Z,13.25
2023-05-01T08:12:43.171Z,13.38
2023-05-01T08:16:43.701Z,13.53
2023-05-01T08:20:43.561Z,13.60
2023-05-01T08:24:43.407Z,13.64
2023-05-01T08:28:43.145Z,13.66
2023-05-01T08:36:43.503Z,13.65
2023-05-01T08:40:50.217Z,13.71
2023-05-01T08:44:45.477Z,13.79
2023-05-01T08:48:44.655Z,13.83
2023-05-01T08:52:43.602Z,13.85
2023-05-01T08:56:46.309Z,13.91
2023-05-01T09:00:45.626Z,13.92
2023-05-01T09:04:43.217Z,13.93
2023-05-01T09:08:43.519Z,14.00
2023-05-01T09:12:48.164Z,14.12
2023-05-01T09:16:43.520Z,14.14
2023-05-01T09:20:43.233Z,14.12
2023-05-01T09:24:43.644Z,14.09
2023-05-01T09:28:44.937Z,14.16
2023-05-01T09:32:43.502Z,14.25
2023-05-01T09:36:46.015Z,14.36
2023-05-01T09:40:44.115Z,14.49
2023-05-01T09:44:44.132Z,14.56
2023-05-01T09:48:53.617Z,14.59
2023-05-01T09:56:46.579Z,14.69
2023-05-01T10:00:47.340Z,14.75
2023-05-01T10:04:43.666Z,14.85
2023-05-01T10:08:45.395Z,14.83
2023-05-01T10:12:43.600Z,14.80
2023-05-01T10:16:43.879Z,14.91
2023-05-01T10:20:43.621Z,15.00
2023-05-01T10:24:45.065Z,15.14
2023-05-01T10:28:46.893Z,15.27
2023-05-01T10:32:43.585Z,15.36
2023-05-01T10:36:46.931Z,15.41
2023-05-01T10:40:46.061Z,15.51
2023-05-01T10:44:46.833Z,15.70
2023-05-01T10:48:55.106Z,15.87
2023-05-01T10:53:03.371Z,15.99
2023-05-01T10:56:43.986Z,16.03
2023-05-01T11:00:43.523Z,16.09
2023-05-01T11:04:48.220Z,16.12
2023-05-01T11:08:45.559Z,16.20
2023-05-01T11:12:49.925Z,16.23
2023-05-01T11:16:45.994Z,16.24
2023-05-01T11:20:46.554Z,16.27
2023-05-01T11:24:43.911Z,16.36
2023-05-01T11:28:43.827Z,16.39
2023-05-01T11:32:45.238Z,16.44
2023-05-01T11:36:47.574Z,16.53
2023-05-01T11:40:44.437Z,16.48
2023-05-01T11:45:03.437Z,16.39
2023-05-01T11:48:48.318Z,16.30
2023-05-01T11:52:45.587Z,16.19
2023-05-01T11:56:43.755Z,16.26
2023-05-01T12:00:44.056Z,16.27
2023-05-01T12:04:43.895Z,16.30
2023-05-01T12:08:47.554Z,16.32
2023-05-01T12:12:43.921Z,16.34
2023-05-01T12:16:44.696Z,16.43
2023-05-01T12:20:46.202Z,16.53
2023-05-01T12:24:50.693Z,16.66
2023-05-01T12:28:54.727Z,16.65
2023-05-01T12:32:44.123Z,16.68
2023-05-01T12:36:52.897Z,16.70
2023-05-01T12:40:51.327Z,16.66
2023-05-01T12:44:44.023Z,16.61
2023-05-01T12:48:44.278Z,16.49
2023-05-01T12:52:43.961Z,16.43
2023-05-01T12:56:43.846Z,16.42
2023-05-01T13:00:45.417Z,16.43
2023-05-01T13:04:45.350Z,16.42
2023-05-01T13:08:44.260Z,16.36
2023-05-01T13:12:45.216Z,16.35
2023-05-01T13:16:45.374Z,16.36
2023-05-01T13:20:44.066Z,16.52
2023-05-01T13:24:43.997Z,16.79
2023-05-01T13:28:44.473Z,16.86
2023-05-01T13:32:45.264Z,16.84
2023-05-01T13:36:45.241Z,16.83
2023-05-01T13:40:44.548Z,16.79
2023-05-01T13:44:49.972Z,16.85
2023-05-01T13:48:44.923Z,16.84
2023-05-01T13:52:44.877Z,16.95
2023-05-01T13:56:44.301Z,17.03
2023-05-01T14:00:44.276Z,17.05
2023-05-01T14:04:44.107Z,17.13
2023-05-01T14:08:46.976Z,17.19
2023-05-01T14:12:44.705Z,17.16
2023-05-01T14:16:46.763Z,17.17
2023-05-01T14:20:46.436Z,17.27
2023-05-01T14:24:44.998Z,17.36
2023-05-01T14:28:45.696Z,17.29
2023-05-01T14:32:44.583Z,17.20
2023-05-01T14:36:44.418Z,17.11
2023-05-01T14:40:45.447Z,17.09
2023-05-01T14:44:44.298Z,17.06
2023-05-01T14:48:44.407Z,17.05
2023-05-01T14:52:44.528Z,17.02
2023-05-01T14:56:45.537Z,16.97
2023-05-01T15:00:44.291Z,16.95
2023-05-01T15:04:44.374Z,16.91
2023-05-01T15:12:44.670Z,16.92
2023-05-01T15:16:44.360Z,16.93
2023-05-01T15:20:45.397Z,16.94
2023-05-01T15:24:45.025Z,17.05
2023-05-01T15:28:44.595Z,17.20
2023-05-01T15:32:44.508Z,17.44
2023-05-01T15:36:44.513Z,17.51
2023-05-01T15:40:44.976Z,17.62
2023-05-01T15:44:44.489Z,17.85
2023-05-01T15:48:45.371Z,18.16
2023-05-01T15:52:45.044Z,18.33
2023-05-01T15:56:44.494Z,18.35
2023-05-01T16:00:44.853Z,18.37
2023-05-01T16:04:46.706Z,18.48
2023-05-01T16:08:44.552Z,18.38
2023-05-01T16:12:45.392Z,18.24
2023-05-01T16:16:45.117Z,18.30
2023-05-01T16:20:44.902Z,18.37
2023-05-01T16:24:44.768Z,18.59
2023-05-01T16:28:44.582Z,18.84
2023-05-01T16:32:45.273Z,18.96
2023-05-01T16:36:45.950Z,19.26
2023-05-01T16:40:46.968Z,19.50
2023-05-01T16:44:44.767Z,19.97
2023-05-01T16:48:45.095Z,20.31
2023-05-01T16:52:44.601Z,20.64
2023-05-01T16:56:44.791Z,20.76
2023-05-01T17:00:44.553Z,20.80
2023-05-01T17:04:45.310Z,20.98
2023-05-01T17:08:44.660Z,20.87
2023-05-01T17:12:44.806Z,20.65
2023-05-01T17:16:45.109Z,20.76
2023-05-01T17:20:44.974Z,20.98
2023-05-01T17:24:44.955Z,21.13
2023-05-01T17:28:44.899Z,21.16
2023-05-01T17:32:44.833Z,21.22
2023-05-01T17:36:44.862Z,21.31
2023-05-01T17:44:44.970Z,21.49
2023-05-01T17:48:44.669Z,21.38
2023-05-01T17:52:44.871Z,21.43
2023-05-01T17:56:44.842Z,21.47
2023-05-01T18:00:44.747Z,21.53
2023-05-01T18:04:45.886Z,21.31
2023-05-01T18:08:44.911Z,20.76
2023-05-01T18:12:46.026Z,20.62
2023-05-01T18:16:45.507Z,20.70
2023-05-01T18:20:44.761Z,20.45
2023-05-01T18:24:45.371Z,20.11
2023-05-01T18:28:44.857Z,19.86
2023-05-01T18:32:48.609Z,19.61
2023-05-01T18:36:46.540Z,19.41
2023-05-01T18:40:46.612Z,19.20
2023-05-01T18:44:45.247Z,19.01
2023-05-01T18:48:45.270Z,18.84
2023-05-01T18:52:44.831Z,18.69
2023-05-01T18:56:45.304Z,18.54
2023-05-01T19:00:45.051Z,18.46
2023-05-01T19:04:56.898Z,18.31
2023-05-01T19:08:45.144Z,18.22
2023-05-01T19:12:45.225Z,18.12
2023-05-01T19:16:45.262Z,17.94
2023-05-01T19:20:45.058Z,17.76
2023-05-01T19:24:45.133Z,17.52
2023-05-01T19:28:45.151Z,17.39
2023-05-01T19:32:45.583Z,17.35
2023-05-01T19:36:45.210Z,17.30
2023-05-01T19:40:45.133Z,17.24
2023-05-01T19:44:45.243Z,17.16
2023-05-01T19:48:45.086Z,17.08
2023-05-01T19:52:45.190Z,16.98
2023-05-01T19:56:45.784Z,16.86
2023-05-01T20:00:45.220Z,16.68
2023-05-01T20:04:45.624Z,16.59
2023-05-01T20:08:46.190Z,16.51
2023-05-01T20:12:45.155Z,16.45
2023-05-01T20:16:45.314Z,16.38
2023-05-01T20:20:45.203Z,16.34
2023-05-01T20:24:45.795Z,16.28
2023-05-01T20:28:45.961Z,16.20
2023-05-01T20:32:45.484Z,16.14
2023-05-01T20:36:45.886Z,16.07
2023-05-01T20:40:45.383Z,15.99
2023-05-01T20:44:45.231Z,15.92
2023-05-01T20:48:46.386Z,15.89
2023-05-01T20:52:45.316Z,15.85
2023-05-01T20:56:45.432Z,15.79
2023-05-01T21:00:45.268Z,15.65
2023-05-01T21:04:45.423Z,15.48
2023-05-01T21:08:46.320Z,15.43
2023-05-01T21:12:45.507Z,15.40
2023-05-01T21:16:45.375Z,15.30
2023-05-01T21:20:47.696Z,15.20
2023-05-01T21:28:45.704Z,15.16
2023-05-01T21:32:46.091Z,15.12
2023-05-01T21:36:45.438Z,15.09
2023-05-01T21:40:45.479Z,15.02
2023-05-01T21:44:45.468Z,14.91
2023-05-01T21:48:48.790Z,14.83
2023-05-01T21:52:49.987Z,14.79
2023-05-01T21:56:47.209Z,14.75
2023-05-01T22:00:45.946Z,14.71
2023-05-01T22:04:45.454Z,14.65
2023-05-01T22:08:45.567Z,14.60
2023-05-01T22:12:47.787Z,14.53
2023-05-01T22:16:45.710Z,14.51
2023-05-01T22:20:45.516Z,14.39
2023-05-01T22:24:45.908Z,14.20
2023-05-01T22:28:45.492Z,14.13
2023-05-01T22:32:45.703Z,14.01
2023-05-01T22:44:46.162Z,14.00
2023-05-01T22:48:45.604Z,13.99
2023-05-01T22:56:46.133Z,13.89
2023-05-01T23:00:45.839Z,13.79
2023-05-01T23:04:45.789Z,13.76
2023-05-01T23:08:45.762Z,13.72
2023-05-01T23:12:45.821Z,13.70
2023-05-01T23:16:45.644Z,13.68
2023-05-01T23:20:45.951Z,13.67
2023-05-01T23:28:45.778Z,13.63
2023-05-01T23:32:45.846Z,13.61
2023-05-01T23:36:46.335Z,13.60
2023-05-01T23:40:45.965Z,13.53
2023-05-01T23:44:46.707Z,13.51
2023-05-01T23:48:45.767Z,13.47
2023-05-01T23:52:46.446Z,13.48
2023-05-01T23:56:45.778Z,13.47
